TimeCST,TemperatureF,Dew PointF,Humidity,Sea Level PressureIn,VisibilityMPH,Wind Direction,Wind SpeedMPH,Gust SpeedMPH,PrecipitationIn,Events,Conditions,WindDirDegrees,DateUTC
12:53 AM,39.0,32.0,76,30.07,10.0,WSW,4.6,-,N/A,,Clear,250,2012-11-06 06:53:00
1:53 AM,39.0,32.0,76,30.04,10.0,Calm,Calm,-,N/A,,Scattered Clouds,0,2012-11-06 07:53:00
2:53 AM,37.0,30.9,79,30.03,10.0,West,5.8,-,N/A,,Clear,260,2012-11-06 08:53:00
3:53 AM,39.0,30.9,73,30.03,10.0,WNW,6.9,-,N/A,,Clear,290,2012-11-06 09:53:00
4:53 AM,46.0,35.1,66,30.04,10.0,NNW,13.8,-,N/A,,Clear,340,2012-11-06 10:53:00
5:53 AM,46.0,35.1,66,30.08,10.0,NNW,11.5,-,N/A,,Clear,330,2012-11-06 11:53:00
6:53 AM,46.0,36.0,68,30.12,10.0,NNW,13.8,-,N/A,,Clear,330,2012-11-06 12:53:00
7:53 AM,48.9,37.9,66,30.16,10.0,NNW,13.8,-,N/A,,Mostly Cloudy,330,2012-11-06 13:53:00
8:53 AM,53.1,39.9,61,30.19,10.0,North,17.3,24.2,N/A,,Clear,350,2012-11-06 14:53:00
9:53 AM,55.9,37.9,51,30.20,10.0,North,17.3,-,N/A,,Clear,360,2012-11-06 15:53:00
10:53 AM,59.0,33.1,38,30.21,10.0,North,17.3,-,N/A,,Clear,350,2012-11-06 16:53:00
11:53 AM,62.1,30.0,30,30.19,10.0,NNW,13.8,-,N/A,,Clear,340,2012-11-06 17:53:00
12:53 PM,64.0,30.9,29,30.16,10.0,North,12.7,-,N/A,,Clear,350,2012-11-06 18:53:00
1:53 PM,64.9,30.9,28,30.14,10.0,North,17.3,21.9,N/A,,Clear,350,2012-11-06 19:53:00
2:53 PM,66.9,30.0,25,30.12,10.0,NNW,16.1,20.7,N/A,,Clear,340,2012-11-06 20:53:00
3:53 PM,66.0,28.9,25,30.12,10.0,North,9.2,-,N/A,,Clear,350,2012-11-06 21:53:00
4:53 PM,63.0,28.0,27,30.12,10.0,North,8.1,-,N/A,,Clear,10,2012-11-06 22:53:00
5:53 PM,48.0,27.0,44,30.15,10.0,NNE,5.8,-,N/A,,Clear,30,2012-11-06 23:53:00
6:53 PM,43.0,27.0,53,30.19,10.0,North,4.6,-,N/A,,Clear,10,2012-11-07 00:53:00
7:53 PM,39.9,26.1,58,30.19,10.0,Calm,Calm,-,N/A,,Clear,0,2012-11-07 01:53:00
8:53 PM,37.9,25.0,60,30.19,10.0,Calm,Calm,-,N/A,,Clear,0,2012-11-07 02:53:00
9:53 PM,37.0,24.1,59,30.19,10.0,WNW,3.5,-,N/A,,Clear,290,2012-11-07 03:53:00
10:53 PM,37.0,25.0,62,30.19,10.0,Calm,Calm,-,N/A,,Clear,0,2012-11-07 04:53:00
11:53 PM,34.0,24.1,67,30.19,10.0,Calm,Calm,-,N/A,,Clear,0,2012-11-07 05:53:00